createdAt,value
2018-03-23T00:00:14.769Z,1002.2
2018-03-23T00:01:16.461Z,1002.3
2018-03-23T00:02:18.256Z,1002.3
2018-03-23T00:03:19.936Z,1002.2
2018-03-23T00:04:21.657Z,1002.3
2018-03-23T00:05:23.358Z,1002.3
2018-03-23T00:06:25.088Z,1002.2
2018-03-23T00:07:26.795Z,1002.2
2018-03-23T00:08:28.543Z,1002.2
2018-03-23T00:09:30.328Z,1002.3
2018-03-23T00:10:32.131Z,1002.2
2018-03-23T00:11:33.806Z,1002.2
2018-03-23T00:12:35.467Z,1002.2
2018-03-23T00:13:37.174Z,1002.2
2018-03-23T00:14:38.787Z,1002.2
2018-03-23T00:15:40.527Z,1002.2
2018-03-23T00:16:42.222Z,1002.2
2018-03-23T00:17:43.946Z,1002.2
2018-03-23T00:18:45.739Z,1002.2
2018-03-23T00:19:47.400Z,1002.2
2018-03-23T00:20:49.062Z,1002.2
2018-03-23T00:21:50.818Z,1002.1
2018-03-23T00:22:52.533Z,1002.2
2018-03-23T00:23:54.234Z,1002.2
2018-03-23T00:24:55.851Z,1002.2
2018-03-23T00:25:57.663Z,1002.2
2018-03-23T00:26:59.384Z,1002.1
2018-03-23T00:28:01.197Z,1002.2
2018-03-23T00:29:02.922Z,1002.1
2018-03-23T00:30:04.627Z,1002.1
2018-03-23T00:31:06.345Z,1002.1
2018-03-23T00:32:08.121Z,1002.1
2018-03-23T00:33:09.854Z,1002.1
2018-03-23T00:34:11.739Z,1002.1
2018-03-23T00:35:13.445Z,1002.1
2018-03-23T00:36:15.202Z,1002.1
2018-03-23T00:37:16.929Z,1002.1
2018-03-23T00:38:18.772Z,1002.1
2018-03-23T00:39:20.337Z,1002.1
2018-03-23T00:40:22.082Z,1002.1
2018-03-23T00:41:23.655Z,1002.1
2018-03-23T00:42:25.226Z,1002.1
2018-03-23T00:43:26.967Z,1002.1
2018-03-23T00:44:28.689Z,1002.1
2018-03-23T00:45:30.481Z,1002.1
2018-03-23T00:46:31.966Z,1002.1
2018-03-23T00:47:33.676Z,1002.1
2018-03-23T00:48:35.384Z,1002.0
2018-03-23T00:49:37.094Z,1002.1
2018-03-23T00:50:38.677Z,1002.1
2018-03-23T00:51:40.264Z,1002.0
2018-03-23T00:52:41.982Z,1002.1
2018-03-23T00:53:43.773Z,1002.1
2018-03-23T00:54:45.302Z,1002.1
2018-03-23T00:55:47.026Z,1002.1
2018-03-23T00:56:48.729Z,1002.0
2018-03-23T00:57:50.220Z,1002.0
2018-03-23T00:58:51.926Z,1002.0
2018-03-23T00:59:53.619Z,1002.0
2018-03-23T01:00:55.277Z,1002.0
2018-03-23T01:01:57.417Z,1002.0
2018-03-23T01:02:59.166Z,1002.0
2018-03-23T01:04:00.890Z,1002.0
2018-03-23T01:05:02.794Z,1001.9
2018-03-23T01:06:04.603Z,1001.9
2018-03-23T01:07:06.405Z,1002.0
2018-03-23T01:08:08.217Z,1002.0
2018-03-23T01:09:09.991Z,1001.9
2018-03-23T01:10:11.550Z,1001.9
2018-03-23T01:11:13.402Z,1001.9
2018-03-23T01:12:15.047Z,1001.9
2018-03-23T01:13:16.598Z,1001.9
2018-03-23T01:14:18.361Z,1001.8
2018-03-23T01:15:20.029Z,1001.9
2018-03-23T01:16:21.761Z,1001.9
2018-03-23T01:17:23.496Z,1001.8
2018-03-23T01:18:25.198Z,1001.8
2018-03-23T01:19:26.756Z,1001.9
2018-03-23T01:20:28.508Z,1001.8
2018-03-23T01:21:30.210Z,1001.8
2018-03-23T01:22:31.910Z,1001.8
2018-03-23T01:23:33.408Z,1001.8
2018-03-23T01:24:35.201Z,1001.8
2018-03-23T01:25:36.819Z,1001.9
2018-03-23T01:26:38.605Z,1001.8
2018-03-23T01:27:40.098Z,1001.8
2018-03-23T01:28:41.646Z,1001.8
2018-03-23T01:29:43.425Z,1001.8
2018-03-23T01:30:45.166Z,1001.8
2018-03-23T01:31:46.748Z,1001.7
2018-03-23T01:32:48.551Z,1001.7
2018-03-23T01:33:50.397Z,1001.7
2018-03-23T01:34:52.344Z,1001.7
2018-03-23T01:35:53.812Z,1001.8
2018-03-23T01:36:55.611Z,1001.7
2018-03-23T01:37:57.366Z,1001.7
2018-03-23T01:38:59.101Z,1001.7
2018-03-23T01:40:00.835Z,1001.7
2018-03-23T01:41:02.298Z,1001.6
2018-03-23T01:42:03.984Z,1001.6
2018-03-23T01:43:05.708Z,1001.6
2018-03-23T01:44:07.239Z,1001.7
2018-03-23T01:45:08.979Z,1001.6
2018-03-23T01:46:10.733Z,1001.6
2018-03-23T01:47:12.499Z,1001.6
2018-03-23T01:48:14.156Z,1001.6
2018-03-23T01:49:15.863Z,1001.6
2018-03-23T01:50:17.563Z,1001.5
2018-03-23T01:51:19.290Z,1001.5
2018-03-23T01:52:21.008Z,1001.5
2018-03-23T01:53:22.938Z,1001.5
2018-03-23T01:54:24.399Z,1001.5
2018-03-23T01:55:26.211Z,1001.5
2018-03-23T01:56:28.079Z,1001.5
2018-03-23T01:57:29.520Z,1001.5
2018-03-23T01:58:31.300Z,1001.5
2018-03-23T01:59:33.028Z,1001.5
2018-03-23T02:00:34.750Z,1001.5
2018-03-23T02:01:36.587Z,1001.5
2018-03-23T02:02:38.309Z,1001.5
2018-03-23T02:03:40.121Z,1001.5
2018-03-23T02:04:41.807Z,1001.5
2018-03-23T02:05:43.652Z,1001.4
2018-03-23T02:06:45.369Z,1001.4
2018-03-23T02:07:46.880Z,1001.4
2018-03-23T02:08:48.674Z,1001.4
2018-03-23T02:09:50.176Z,1001.4
2018-03-23T02:10:51.747Z,1001.4
2018-03-23T02:11:53.499Z,1001.4
2018-03-23T02:12:55.269Z,1001.4
2018-03-23T02:13:57.115Z,1001.4
2018-03-23T02:14:58.760Z,1001.4
2018-03-23T02:16:00.516Z,1001.3
2018-03-23T02:17:02.339Z,1001.3
2018-03-23T02:18:04.106Z,1001.4
2018-03-23T02:19:05.643Z,1001.3
2018-03-23T02:20:07.165Z,1001.3
2018-03-23T02:21:08.886Z,1001.3
2018-03-23T02:22:10.601Z,1001.3
2018-03-23T02:23:12.325Z,1001.2
2018-03-23T02:24:13.861Z,1001.3
2018-03-23T02:25:15.560Z,1001.2
2018-03-23T02:26:17.274Z,1001.2
2018-03-23T02:27:19.097Z,1001.2
2018-03-23T02:28:20.746Z,1001.2
2018-03-23T02:29:22.201Z,1001.2
2018-03-23T02:30:23.965Z,1001.2
2018-03-23T02:31:25.641Z,1001.2
2018-03-23T02:32:27.271Z,1001.2
2018-03-23T02:33:29.020Z,1001.2
2018-03-23T02:34:30.865Z,1001.2
2018-03-23T02:35:32.475Z,1001.1
2018-03-23T02:36:34.260Z,1001.1
2018-03-23T02:37:36.015Z,1001.1
2018-03-23T02:38:37.526Z,1001.2
2018-03-23T02:39:39.154Z,1001.2
2018-03-23T02:40:40.873Z,1001.2
2018-03-23T02:41:42.647Z,1001.2
2018-03-23T02:42:44.370Z,1001.1
2018-03-23T02:43:46.098Z,1001.1
2018-03-23T02:44:47.789Z,1001.1
2018-03-23T02:45:49.500Z,1001.1
2018-03-23T02:46:51.258Z,1001.1
2018-03-23T02:47:52.780Z,1001.1
2018-03-23T02:48:54.583Z,1001.1
2018-03-23T02:49:56.274Z,1001.0
2018-03-23T02:50:58.080Z,1001.1
2018-03-23T02:51:59.561Z,1001.0
2018-03-23T02:53:01.591Z,1001.0
2018-03-23T02:54:03.309Z,1001.0
2018-03-23T02:55:05.118Z,1001.0
2018-03-23T02:56:06.893Z,1001.0
2018-03-23T02:57:08.590Z,1001.0
2018-03-23T02:58:10.305Z,1001.0
2018-03-23T02:59:11.961Z,1001.0
2018-03-23T03:00:13.388Z,1000.9
2018-03-23T03:01:15.229Z,1001.0
2018-03-23T03:02:16.732Z,1001.0
2018-03-23T03:03:18.376Z,1001.0
2018-03-23T03:04:20.099Z,1001.0
2018-03-23T03:05:21.703Z,1000.9
2018-03-23T03:06:23.184Z,1001.0
2018-03-23T03:07:24.985Z,1000.9
2018-03-23T03:08:26.751Z,1000.9
2018-03-23T03:09:28.435Z,1000.9
2018-03-23T03:10:30.170Z,1000.9
2018-03-23T03:11:31.855Z,1000.9
2018-03-23T03:12:33.496Z,1000.8
2018-03-23T03:13:35.193Z,1000.9
2018-03-23T03:14:36.845Z,1000.9
2018-03-23T03:15:38.626Z,1000.9
2018-03-23T03:16:40.441Z,1000.8
2018-03-23T03:17:42.091Z,1000.8
2018-03-23T03:18:43.598Z,1000.8
2018-03-23T03:19:45.106Z,1000.8
2018-03-23T03:20:46.806Z,1000.8
2018-03-23T03:21:48.477Z,1000.8
2018-03-23T03:22:50.208Z,1000.8
2018-03-23T03:23:51.908Z,1000.8
2018-03-23T03:24:53.483Z,1000.8
2018-03-23T03:25:55.271Z,1000.8
2018-03-23T03:26:56.916Z,1000.8
2018-03-23T03:27:58.667Z,1000.8
2018-03-23T03:29:00.236Z,1000.8
2018-03-23T03:30:01.912Z,1000.8
2018-03-23T03:31:03.615Z,1000.8
2018-03-23T03:32:05.160Z,1000.7
2018-03-23T03:33:06.769Z,1000.7
2018-03-23T03:34:08.615Z,1000.7
2018-03-23T03:35:10.292Z,1000.7
2018-03-23T03:36:12.011Z,1000.7
2018-03-23T03:37:13.809Z,1000.6
2018-03-23T03:38:15.488Z,1000.6
2018-03-23T03:39:16.999Z,1000.7
2018-03-23T03:40:18.768Z,1000.6
2018-03-23T03:41:20.579Z,1000.6
2018-03-23T03:42:22.252Z,1000.6
2018-03-23T03:43:23.916Z,1000.6
2018-03-23T03:44:25.490Z,1000.6
2018-03-23T03:45:27.193Z,1000.6
2018-03-23T03:46:28.943Z,1000.6
2018-03-23T03:47:30.618Z,1000.5
2018-03-23T03:48:32.351Z,1000.5
2018-03-23T03:49:34.052Z,1000.5
2018-03-23T03:50:35.782Z,1000.5
2018-03-23T03:51:37.506Z,1000.5
2018-03-23T03:52:39.060Z,1000.5
2018-03-23T03:53:40.836Z,1000.5
2018-03-23T03:54:42.507Z,1000.5
2018-03-23T03:55:44.182Z,1000.5
2018-03-23T03:56:45.769Z,1000.5
2018-03-23T03:57:47.478Z,1000.5
2018-03-23T03:58:49.173Z,1000.5
2018-03-23T03:59:50.941Z,1000.5
2018-03-23T04:00:52.693Z,1000.4
2018-03-23T04:01:54.722Z,1000.5
2018-03-23T04:02:56.824Z,1000.5
2018-03-23T04:03:58.282Z,1000.4
2018-03-23T04:04:59.818Z,1000.4
2018-03-23T04:06:02.070Z,1000.5
2018-03-23T04:07:03.721Z,1000.4
2018-03-23T04:08:05.454Z,1000.5
2018-03-23T04:09:07.207Z,1000.5
2018-03-23T04:10:08.891Z,1000.4
2018-03-23T04:11:10.976Z,1000.4
2018-03-23T04:12:12.478Z,1000.4
2018-03-23T04:13:14.363Z,1000.4
2018-03-23T04:14:16.106Z,1000.4
2018-03-23T04:15:17.781Z,1000.4
2018-03-23T04:16:19.461Z,1000.4
2018-03-23T04:17:20.960Z,1000.4
2018-03-23T04:18:22.412Z,1000.4
2018-03-23T04:19:23.956Z,1000.4
2018-03-23T04:20:25.959Z,1000.4
2018-03-23T04:21:27.909Z,1000.4
2018-03-23T04:22:29.611Z,1000.4
2018-03-23T04:23:31.272Z,1000.3
2018-03-23T04:24:32.831Z,1000.3
2018-03-23T04:25:34.641Z,1000.3
2018-03-23T04:26:36.415Z,1000.3
2018-03-23T04:27:37.976Z,1000.2
2018-03-23T04:28:39.465Z,1000.2
2018-03-23T04:29:41.536Z,1000.2
2018-03-23T04:30:43.115Z,1000.2
2018-03-23T04:31:44.774Z,1000.2
2018-03-23T04:32:46.566Z,1000.2
2018-03-23T04:33:48.118Z,1000.2
2018-03-23T04:34:49.868Z,1000.2
2018-03-23T04:35:51.965Z,1000.2
2018-03-23T04:36:53.972Z,1000.2
2018-03-23T04:37:55.762Z,1000.1
2018-03-23T04:38:57.512Z,1000.1
2018-03-23T04:39:59.184Z,1000.1
2018-03-23T04:41:00.862Z,1000.1
2018-03-23T04:42:02.563Z,1000.2
2018-03-23T04:43:04.265Z,1000.1
2018-03-23T04:44:05.886Z,1000.1
2018-03-23T04:45:07.583Z,1000.1
2018-03-23T04:46:09.342Z,1000.1
2018-03-23T04:47:11.019Z,1000.1
2018-03-23T04:48:12.716Z,1000.1
2018-03-23T04:49:14.409Z,1000.1
2018-03-23T04:50:16.079Z,1000.2
2018-03-23T04:51:17.866Z,1000.1
2018-03-23T04:52:19.562Z,1000.1
2018-03-23T04:53:21.274Z,1000.1
2018-03-23T04:54:22.984Z,1000.1
2018-03-23T04:55:24.738Z,1000.0
2018-03-23T04:56:26.484Z,1000.0
2018-03-23T04:57:28.221Z,1000.0
2018-03-23T04:58:29.941Z,1000.0
2018-03-23T04:59:31.673Z,1000.0
2018-03-23T05:00:33.439Z,1000.0
2018-03-23T05:01:35.186Z,1000.0
2018-03-23T05:02:36.982Z,1000.0
2018-03-23T05:03:38.668Z,1000.0
2018-03-23T05:04:40.456Z,1000.0
2018-03-23T05:05:42.956Z,1000.0
2018-03-23T05:06:44.730Z,1000.0
2018-03-23T05:07:46.481Z,1000.0
2018-03-23T05:08:48.228Z,999.9
2018-03-23T05:09:49.853Z,999.9
2018-03-23T05:10:51.526Z,999.9
2018-03-23T05:11:53.206Z,999.9
2018-03-23T05:12:54.943Z,999.9
2018-03-23T05:13:56.744Z,999.9
2018-03-23T05:14:58.449Z,999.8
2018-03-23T05:16:00.182Z,999.9
2018-03-23T05:17:01.912Z,999.8
2018-03-23T05:18:03.598Z,999.8
2018-03-23T05:19:05.209Z,999.8
2018-03-23T05:20:06.946Z,999.8
2018-03-23T05:21:08.625Z,999.8
2018-03-23T05:22:10.336Z,999.8
2018-03-23T05:23:12.005Z,999.8
2018-03-23T05:24:13.680Z,999.8
2018-03-23T05:25:15.463Z,999.8
2018-03-23T05:26:17.048Z,999.8
2018-03-23T05:27:18.761Z,999.7
2018-03-23T05:28:20.647Z,999.7
2018-03-23T05:29:22.354Z,999.8
2018-03-23T05:30:24.041Z,999.8
2018-03-23T05:31:25.776Z,999.8
2018-03-23T05:32:27.442Z,999.7
2018-03-23T05:33:29.190Z,999.8
2018-03-23T05:34:30.935Z,999.7
2018-03-23T05:35:32.632Z,999.8
2018-03-23T05:36:34.408Z,999.8
2018-03-23T05:37:36.104Z,999.8
2018-03-23T05:38:37.825Z,999.7
2018-03-23T05:39:39.577Z,999.7
2018-03-23T05:40:41.373Z,999.8
2018-03-23T05:41:43.105Z,999.8
2018-03-23T05:42:44.870Z,999.7
2018-03-23T05:43:46.690Z,999.7
2018-03-23T05:44:48.469Z,999.7
2018-03-23T05:45:50.205Z,999.7
2018-03-23T05:46:51.954Z,999.7
2018-03-23T05:47:53.660Z,999.7
2018-03-23T05:48:55.402Z,999.7
2018-03-23T05:49:57.221Z,999.7
2018-03-23T05:50:58.973Z,999.7
2018-03-23T05:52:00.647Z,999.7
2018-03-23T05:53:02.427Z,999.7
2018-03-23T05:54:04.155Z,999.7
2018-03-23T05:55:05.873Z,999.7
2018-03-23T05:56:07.592Z,999.7
2018-03-23T05:57:09.353Z,999.7
2018-03-23T05:58:11.050Z,999.7
2018-03-23T05:59:12.885Z,999.7
2018-03-23T06:00:14.575Z,999.7
2018-03-23T06:01:16.422Z,999.7
2018-03-23T06:02:18.120Z,999.7
2018-03-23T06:03:19.933Z,999.7
2018-03-23T06:04:21.656Z,999.7
2018-03-23T06:05:23.426Z,999.7
2018-03-23T06:06:25.193Z,999.7
2018-03-23T06:07:26.900Z,999.7
2018-03-23T06:08:28.618Z,999.7
2018-03-23T06:09:30.336Z,999.7
2018-03-23T06:10:32.087Z,999.7
2018-03-23T06:11:33.730Z,999.7
2018-03-23T06:12:35.517Z,999.7
2018-03-23T06:13:37.216Z,999.6
2018-03-23T06:14:38.955Z,999.6
2018-03-23T06:15:40.603Z,999.7
2018-03-23T06:16:42.421Z,999.6
2018-03-23T06:17:44.128Z,999.6
2018-03-23T06:18:45.926Z,999.6
2018-03-23T06:19:47.558Z,999.7
2018-03-23T06:20:49.233Z,999.6
2018-03-23T06:21:50.885Z,999.6
2018-03-23T06:22:52.593Z,999.6
2018-03-23T06:23:54.297Z,999.6
2018-03-23T06:24:55.862Z,999.6
2018-03-23T06:25:57.582Z,999.6
2018-03-23T06:26:59.215Z,999.5
2018-03-23T06:28:01.053Z,999.5
2018-03-23T06:29:02.725Z,999.5
2018-03-23T06:30:04.966Z,999.6
2018-03-23T06:31:06.718Z,999.5
2018-03-23T06:32:08.483Z,999.5
2018-03-23T06:33:10.236Z,999.6
2018-03-23T06:34:11.977Z,999.5
2018-03-23T06:35:13.717Z,999.5
2018-03-23T06:36:15.312Z,999.5
2018-03-23T06:37:16.980Z,999.5
2018-03-23T06:38:18.757Z,999.5
2018-03-23T06:39:20.484Z,999.5
2018-03-23T06:40:22.176Z,999.5
2018-03-23T06:41:23.750Z,999.5
2018-03-23T06:42:25.342Z,999.5
2018-03-23T06:43:27.098Z,999.5
2018-03-23T06:44:28.884Z,999.5
2018-03-23T06:45:30.619Z,999.5
2018-03-23T06:46:32.300Z,999.5
2018-03-23T06:47:34.029Z,999.5
2018-03-23T06:48:35.813Z,999.5
2018-03-23T06:49:37.625Z,999.5
2018-03-23T06:50:39.303Z,999.5
2018-03-23T06:51:41.074Z,999.5
2018-03-23T06:52:42.828Z,999.4
2018-03-23T06:53:44.611Z,999.5
2018-03-23T06:54:46.413Z,999.5
2018-03-23T06:55:48.158Z,999.5
2018-03-23T06:56:49.949Z,999.5
2018-03-23T06:57:51.628Z,999.5
2018-03-23T06:58:53.395Z,999.5
2018-03-23T06:59:55.170Z,999.5
2018-03-23T07:00:56.960Z,999.5
2018-03-23T07:01:58.722Z,999.5
2018-03-23T07:03:00.466Z,999.5
2018-03-23T07:04:02.209Z,999.6
2018-03-23T07:05:03.890Z,999.5
2018-03-23T07:06:05.523Z,999.5
2018-03-23T07:07:07.232Z,999.5
2018-03-23T07:08:08.950Z,999.6
2018-03-23T07:09:10.653Z,999.5
2018-03-23T07:10:12.385Z,999.5
2018-03-23T07:11:14.131Z,999.5
2018-03-23T07:12:15.842Z,999.5
2018-03-23T07:13:17.644Z,999.5
2018-03-23T07:14:19.333Z,999.5
2018-03-23T07:15:20.933Z,999.5
2018-03-23T07:16:22.682Z,999.5
2018-03-23T07:17:24.418Z,999.5
2018-03-23T07:18:26.124Z,999.5
2018-03-23T07:19:27.713Z,999.5
2018-03-23T07:20:29.261Z,999.4
2018-03-23T07:21:30.970Z,999.5
2018-03-23T07:22:32.664Z,999.5
2018-03-23T07:23:34.981Z,999.5
2018-03-23T07:24:36.722Z,999.5
2018-03-23T07:25:38.372Z,999.5
2018-03-23T07:26:40.024Z,999.5
2018-03-23T07:27:41.868Z,999.5
2018-03-23T07:28:43.487Z,999.5
2018-03-23T07:29:45.174Z,999.5
2018-03-23T07:30:46.762Z,999.5
2018-03-23T07:31:48.483Z,999.5
2018-03-23T07:32:50.270Z,999.6
2018-03-23T07:33:51.959Z,999.6
2018-03-23T07:34:53.708Z,999.6
2018-03-23T07:35:55.464Z,999.6
2018-03-23T07:36:57.159Z,999.5
2018-03-23T07:37:58.794Z,999.6
2018-03-23T07:39:00.350Z,999.6
2018-03-23T07:40:02.076Z,999.6
2018-03-23T07:41:03.770Z,999.6
2018-03-23T07:42:05.492Z,999.6
2018-03-23T07:43:07.085Z,999.6
2018-03-23T07:44:08.791Z,999.6
2018-03-23T07:45:10.439Z,999.6
2018-03-23T07:46:12.019Z,999.5
2018-03-23T07:47:13.618Z,999.6
2018-03-23T07:48:15.292Z,999.6
2018-03-23T07:49:17.109Z,999.5
2018-03-23T07:50:18.954Z,999.5
2018-03-23T07:51:20.467Z,999.5
2018-03-23T07:52:21.995Z,999.6
2018-03-23T07:53:23.649Z,999.6
2018-03-23T07:54:25.375Z,999.5
2018-03-23T07:55:26.906Z,999.5
2018-03-23T07:56:28.577Z,999.6
2018-03-23T07:57:30.079Z,999.5
2018-03-23T07:58:31.919Z,999.5
2018-03-23T07:59:33.656Z,999.5
2018-03-23T08:00:35.406Z,999.5
2018-03-23T08:01:37.198Z,999.5
2018-03-23T08:02:39.009Z,999.6
2018-03-23T08:03:40.610Z,999.5
2018-03-23T08:04:42.353Z,999.5
2018-03-23T08:05:44.097Z,999.5
2018-03-23T08:06:45.807Z,999.5
2018-03-23T08:07:47.417Z,999.5
2018-03-23T08:08:49.138Z,999.5
2018-03-23T08:09:50.877Z,999.5
2018-03-23T08:10:52.630Z,999.5
2018-03-23T08:11:54.424Z,999.5
2018-03-23T08:12:56.226Z,999.5
2018-03-23T08:13:57.934Z,999.5
2018-03-23T08:14:59.723Z,999.5
2018-03-23T08:16:01.509Z,999.4
2018-03-23T08:17:03.271Z,999.5
2018-03-23T08:18:04.980Z,999.5
2018-03-23T08:19:06.811Z,999.5
2018-03-23T08:20:08.581Z,999.5
2018-03-23T08:21:10.050Z,999.5
2018-03-23T08:22:11.633Z,999.4
2018-03-23T08:23:13.381Z,999.5
2018-03-23T08:24:15.177Z,999.5
2018-03-23T08:25:16.898Z,999.4
2018-03-23T08:26:18.581Z,999.4
2018-03-23T08:27:20.304Z,999.4
2018-03-23T08:28:22.032Z,999.4
2018-03-23T08:29:23.499Z,999.5
2018-03-23T08:30:25.241Z,999.5
2018-03-23T08:31:27.060Z,999.5
2018-03-23T08:32:28.762Z,999.5
2018-03-23T08:33:30.386Z,999.5
2018-03-23T08:34:32.097Z,999.5
2018-03-23T08:35:33.750Z,999.5
2018-03-23T08:36:35.367Z,999.5
2018-03-23T08:37:36.837Z,999.5
2018-03-23T08:38:38.567Z,999.4
2018-03-23T08:39:40.022Z,999.5
2018-03-23T08:40:41.536Z,999.4
2018-03-23T08:41:43.233Z,999.4
2018-03-23T08:42:44.942Z,999.4
2018-03-23T08:43:46.423Z,999.4
2018-03-23T08:44:48.122Z,999.4
2018-03-23T08:45:49.890Z,999.4
2018-03-23T08:46:51.340Z,999.4
2018-03-23T08:47:53.113Z,999.4
2018-03-23T08:48:54.823Z,999.5
2018-03-23T08:49:56.622Z,999.4
2018-03-23T08:50:58.087Z,999.4
2018-03-23T08:51:59.838Z,999.4
2018-03-23T08:53:01.562Z,999.3
2018-03-23T08:54:03.094Z,999.3
2018-03-23T08:55:04.573Z,999.3
2018-03-23T08:56:06.253Z,999.3
2018-03-23T08:57:08.048Z,999.3
2018-03-23T08:58:09.777Z,999.3
2018-03-23T08:59:11.208Z,999.3
2018-03-23T09:00:12.923Z,999.3
2018-03-23T09:01:14.692Z,999.3
2018-03-23T09:02:16.199Z,999.3
2018-03-23T09:03:17.865Z,999.3
2018-03-23T09:04:19.551Z,999.3
2018-03-23T09:05:21.066Z,999.2
2018-03-23T09:06:22.881Z,999.2
2018-03-23T09:07:24.555Z,999.2
2018-03-23T09:08:26.294Z,999.2
2018-03-23T09:09:27.736Z,999.2
2018-03-23T09:10:29.246Z,999.2
2018-03-23T09:11:30.715Z,999.2
2018-03-23T09:12:32.147Z,999.2
2018-03-23T09:13:33.839Z,999.2
2018-03-23T09:14:35.558Z,999.2
2018-03-23T09:15:37.038Z,999.2
2018-03-23T09:16:38.802Z,999.3
2018-03-23T09:17:40.483Z,999.3
2018-03-23T09:18:41.949Z,999.3
2018-03-23T09:19:43.405Z,999.3
2018-03-23T09:20:44.943Z,999.3
2018-03-23T09:21:46.469Z,999.3
2018-03-23T09:22:47.902Z,999.3
2018-03-23T09:23:49.369Z,999.3
2018-03-23T09:24:51.098Z,999.3
2018-03-23T09:25:52.828Z,999.2
2018-03-23T09:26:54.481Z,999.3
2018-03-23T09:27:55.984Z,999.2
2018-03-23T09:28:57.660Z,999.3
2018-03-23T09:29:59.230Z,999.2
2018-03-23T09:31:00.779Z,999.2
2018-03-23T09:32:02.269Z,999.2
2018-03-23T09:33:04.606Z,999.2
2018-03-23T09:34:06.347Z,999.2
2018-03-23T09:35:08.037Z,999.2
2018-03-23T09:36:09.791Z,999.2
2018-03-23T09:37:11.493Z,999.2
2018-03-23T09:38:13.210Z,999.1
2018-03-23T09:39:14.974Z,999.1
2018-03-23T09:40:16.429Z,999.1
2018-03-23T09:41:18.132Z,999.1
2018-03-23T09:42:19.819Z,999.0
2018-03-23T09:43:21.404Z,999.1
2018-03-23T09:44:23.101Z,999.1
2018-03-23T09:45:24.923Z,999.1
2018-03-23T09:46:26.744Z,999.1
2018-03-23T09:47:28.418Z,999.1
2018-03-23T09:48:30.098Z,999.0
2018-03-23T09:49:31.836Z,999.1
2018-03-23T09:50:33.292Z,999.1
2018-03-23T09:51:35.008Z,999.1
2018-03-23T09:52:36.533Z,999.0
2018-03-23T09:53:38.052Z,999.0
2018-03-23T09:54:39.774Z,999.0
2018-03-23T09:55:41.332Z,998.9
2018-03-23T09:56:42.966Z,998.9
2018-03-23T09:57:44.724Z,998.9
2018-03-23T09:58:46.517Z,998.9
2018-03-23T09:59:47.986Z,998.9
2018-03-23T10:00:49.598Z,998.9
2018-03-23T10:01:51.356Z,998.9
2018-03-23T10:02:53.124Z,998.9
2018-03-23T10:03:54.860Z,998.9
2018-03-23T10:04:56.584Z,998.9
2018-03-23T10:05:58.288Z,998.9
2018-03-23T10:06:59.881Z,998.9
2018-03-23T10:08:01.564Z,998.9
2018-03-23T10:09:03.208Z,998.8
2018-03-23T10:10:04.916Z,998.8
2018-03-23T10:11:06.702Z,998.8
2018-03-23T10:12:08.362Z,998.8
2018-03-23T10:13:09.913Z,998.7
2018-03-23T10:14:11.824Z,998.7
2018-03-23T10:15:13.588Z,998.8
2018-03-23T10:16:15.104Z,998.8
2018-03-23T10:17:16.769Z,998.8
2018-03-23T10:18:18.527Z,998.8
2018-03-23T10:19:20.309Z,998.8
2018-03-23T10:20:22.053Z,998.8
2018-03-23T10:21:23.785Z,998.7
2018-03-23T10:22:25.533Z,998.8
2018-03-23T10:23:27.298Z,998.8
2018-03-23T10:24:29.131Z,998.7
2018-03-23T10:25:30.842Z,998.7
2018-03-23T10:26:32.389Z,998.7
2018-03-23T10:27:33.876Z,998.7
2018-03-23T10:28:35.353Z,998.8
2018-03-23T10:29:36.874Z,998.7
2018-03-23T10:30:38.367Z,998.7
2018-03-23T10:31:40.014Z,998.7
2018-03-23T10:32:41.524Z,998.7
2018-03-23T10:33:43.059Z,998.6
2018-03-23T10:34:44.475Z,998.7
2018-03-23T10:35:45.920Z,998.6
2018-03-23T10:36:47.354Z,998.6
2018-03-23T10:37:48.771Z,998.6
2018-03-23T10:38:50.269Z,998.6
2018-03-23T10:39:51.800Z,998.5
2018-03-23T10:40:53.260Z,998.5
2018-03-23T10:41:54.761Z,998.5
2018-03-23T10:42:56.238Z,998.5
2018-03-23T10:43:57.798Z,998.5
2018-03-23T10:44:59.266Z,998.5
2018-03-23T10:46:00.730Z,998.5
2018-03-23T10:47:02.452Z,998.5
2018-03-23T10:48:03.980Z,998.5
2018-03-23T10:49:05.734Z,998.5
2018-03-23T10:50:07.404Z,998.5
2018-03-23T10:51:08.843Z,998.5
2018-03-23T10:52:10.324Z,998.5
2018-03-23T10:53:11.837Z,998.5
2018-03-23T10:54:13.631Z,998.5
2018-03-23T10:55:15.361Z,998.5
2018-03-23T10:56:16.915Z,998.5
2018-03-23T10:57:18.673Z,998.5
2018-03-23T10:58:20.316Z,998.5
2018-03-23T10:59:22.061Z,998.5
2018-03-23T11:00:23.464Z,998.4
2018-03-23T11:01:25.061Z,998.5
2018-03-23T11:02:26.675Z,998.4
2018-03-23T11:03:28.129Z,998.4
2018-03-23T11:04:29.744Z,998.3
2018-03-23T11:05:31.250Z,998.4
2018-03-23T11:06:32.892Z,998.4
2018-03-23T11:07:34.673Z,998.4
2018-03-23T11:08:36.242Z,998.4
2018-03-23T11:09:37.692Z,998.4
2018-03-23T11:10:39.460Z,998.4
2018-03-23T11:11:41.164Z,998.4
2018-03-23T11:12:42.962Z,998.4
2018-03-23T11:13:44.622Z,998.3
2018-03-23T11:14:46.085Z,998.4
2018-03-23T11:15:47.614Z,998.4
2018-03-23T11:16:49.152Z,998.5
2018-03-23T11:17:50.949Z,998.5
2018-03-23T11:18:52.722Z,998.5
2018-03-23T11:19:54.503Z,998.4
2018-03-23T11:20:56.249Z,998.5
2018-03-23T11:21:58.018Z,998.4
2018-03-23T11:22:59.801Z,998.3
2018-03-23T11:24:01.510Z,998.4
2018-03-23T11:25:03.209Z,998.3
2018-03-23T11:26:05.003Z,998.3
2018-03-23T11:27:06.817Z,998.3
2018-03-23T11:28:08.569Z,998.2
2018-03-23T11:29:10.406Z,998.3
2018-03-23T11:30:12.172Z,998.2
2018-03-23T11:31:13.743Z,998.2
2018-03-23T11:32:15.464Z,998.1
2018-03-23T11:33:17.234Z,998.0
2018-03-23T11:34:19.025Z,998.0
2018-03-23T11:35:20.694Z,998.0
2018-03-23T11:36:22.487Z,998.0
2018-03-23T11:37:23.994Z,997.9
2018-03-23T11:38:25.694Z,998.0
2018-03-23T11:39:27.281Z,998.0
2018-03-23T11:40:29.047Z,997.9
2018-03-23T11:41:30.793Z,997.9
2018-03-23T11:42:32.428Z,997.9
2018-03-23T11:43:33.919Z,997.9
2018-03-23T11:44:35.615Z,997.9
2018-03-23T11:45:37.361Z,998.0
2018-03-23T11:46:39.118Z,997.9
2018-03-23T11:47:40.871Z,997.9
2018-03-23T11:48:42.438Z,997.9
2018-03-23T11:49:44.140Z,997.9
2018-03-23T11:50:45.854Z,997.9
2018-03-23T11:51:47.561Z,997.9
2018-03-23T11:52:49.203Z,997.9
2018-03-23T11:53:50.831Z,997.9
2018-03-23T11:54:52.404Z,997.8
2018-03-23T11:55:54.241Z,997.9
2018-03-23T11:56:56.025Z,997.8
2018-03-23T11:57:57.739Z,997.8
2018-03-23T11:58:59.440Z,997.8
2018-03-23T12:00:00.931Z,997.8
2018-03-23T12:01:02.537Z,997.8
2018-03-23T12:02:04.204Z,997.8
2018-03-23T12:03:05.975Z,997.8
2018-03-23T12:04:07.697Z,997.9
2018-03-23T12:05:09.333Z,997.9
2018-03-23T12:06:10.827Z,997.8
2018-03-23T12:07:12.499Z,997.7
2018-03-23T12:08:14.311Z,997.7
2018-03-23T12:09:15.889Z,997.7
2018-03-23T12:10:17.470Z,997.7
2018-03-23T12:11:19.087Z,997.6
2018-03-23T12:12:20.544Z,997.6
2018-03-23T12:13:22.131Z,997.6
2018-03-23T12:14:23.760Z,997.5
2018-03-23T12:15:25.425Z,997.5
2018-03-23T12:16:27.264Z,997.4
2018-03-23T12:17:28.777Z,997.3
2018-03-23T12:18:30.287Z,997.4
2018-03-23T12:19:32.057Z,997.4
2018-03-23T12:20:33.743Z,997.4
2018-03-23T12:21:35.325Z,997.4
2018-03-23T12:22:36.956Z,997.5
2018-03-23T12:23:38.419Z,997.5
2018-03-23T12:24:39.972Z,997.4
2018-03-23T12:25:41.749Z,997.4
2018-03-23T12:26:43.403Z,997.4
2018-03-23T12:27:44.886Z,997.4
2018-03-23T12:28:46.393Z,997.3
2018-03-23T12:29:48.128Z,997.3
2018-03-23T12:30:49.620Z,997.3
2018-03-23T12:31:51.340Z,997.3
2018-03-23T12:32:52.802Z,997.3
2018-03-23T12:33:54.303Z,997.2
2018-03-23T12:34:55.927Z,997.2
2018-03-23T12:35:57.322Z,997.1
2018-03-23T12:36:59.074Z,997.1
2018-03-23T12:38:00.634Z,997.1
2018-03-23T12:39:02.361Z,997.0
2018-03-23T12:40:04.261Z,997.0
2018-03-23T12:41:05.792Z,996.9
2018-03-23T12:42:07.464Z,997.0
2018-03-23T12:43:09.136Z,997.0
2018-03-23T12:44:10.710Z,997.0
2018-03-23T12:45:12.490Z,996.9
2018-03-23T12:46:14.131Z,997.0
2018-03-23T12:47:15.633Z,997.0
2018-03-23T12:48:17.164Z,997.0
2018-03-23T12:49:18.873Z,997.0
2018-03-23T12:50:20.489Z,997.0
2018-03-23T12:51:22.197Z,997.0
2018-03-23T12:52:23.669Z,996.9
2018-03-23T12:53:25.308Z,996.9
2018-03-23T12:54:27.135Z,996.9
2018-03-23T12:55:28.863Z,996.9
2018-03-23T12:56:30.465Z,996.9
2018-03-23T12:57:31.913Z,996.9
2018-03-23T12:58:33.556Z,996.9
2018-03-23T12:59:35.330Z,996.9
2018-03-23T13:00:36.994Z,996.9
2018-03-23T13:01:38.669Z,996.9
2018-03-23T13:02:40.418Z,996.8
2018-03-23T13:03:42.017Z,996.9
2018-03-23T13:04:43.677Z,996.8